Kezdőlap
METAR-TAF:

METAR-TAF

Repülőterek :

Perpignan, Franciaország

földrajzi szélesség: 42-44N, földrajzi hosszúság: 002-52E, magasság: 43 m

Jelenlegi meteorológiai megfigyelések

A jelentés 41 perccel ezelõtt készült, 00:30 UTC
Nyugati szél 3 kt, délnyugati és nyugat-északnyugati között változik
Hőmérséklet 9°C
Páratartalom 66%
Légköri nyomás 1019 hPa
Látótávolság 10 km, vagy több
felhőtlen 1500 m magasságban, és nincs gomolyfelhõ

METAR: LFMP 290030Z AUTO 26003KT 230V300 CAVOK 09/03 Q1019

Idő: 02:11 (01:11 UTC)

Előrejelzés

A jelentés 8 órával és 41 perccel ezelõtt készült, 16:30 UTC
Az előrejelzés 28-én 16 óra UTC és 29-én 15 óra UTC között érvényes
Nyugati szél 10 kt
Látótávolság 10 km, vagy több
felhőtlen 1500 m magasságban, és nincs gomolyfelhõ

TAF: LFMP 281630Z 2816/2915 28010KT CAVOK

Meteorológiai megfigyelések és előrejelzések több, mint 4000 repülőtéren (METAR és TAF jelentéseket).

A térképen piros és sárga pontok jelzik az elérhető meteorológiai állomásokat.

Mozgassa az egeret a pont fölött, hogy megjelenjen az állomás neve.

Azután kattintson az időjárási megfigyelések és előrejelzések megtekintéséhez.

A térkép megváltoztatása: kattintson a fekete keresztel jelölt zöld gombra ráközelítéshez, a vonallal jelölt zöld gombra távolításhoz, vagy a zöld nyilakra a szomszédos térképek eléréséhez.


METAR-TAF: